Time;durP1;ratioP1;P1;durP2;ratioP2;P2;SDS_P1;SDS_P2;PMS_P1;PMS_P2;Temp;Humidity;BMP_temperature;BMP_pressure;BME280_temperature;BME280_humidity;BME280_pressure;Samples;Min_cycle;Max_cycle;Signal;HPM_P1;HPM_P2
2023/12/30 00:00:47;;;;;;;7.87;2.90;;;;;;;;;;5033099;28;21061;-78
2023/12/30 00:03:14;;;;;;;7.63;3.20;;;;;;;;;;5034059;28;21010;-79
2023/12/30 00:05:40;;;;;;;6.07;3.10;;;;;;;;;;5036678;28;20557;-78
2023/12/30 00:08:07;;;;;;;8.00;3.57;;;;;;;;;;5037350;28;20473;-79
2023/12/30 00:10:35;;;;;;;8.47;2.90;;;;;;;;;;5036698;28;20519;-78
2023/12/30 00:13:02;;;;;;;5.83;2.70;;;;;;;;;;5037367;28;20868;-78
2023/12/30 00:15:28;;;;;;;7.93;3.00;;;;;;;;;;5036798;28;20480;-78
2023/12/30 00:17:55;;;;;;;4.60;2.10;;;;;;;;;;5037031;28;20906;-78
2023/12/30 00:20:22;;;;;;;5.37;2.80;;;;;;;;;;5036535;28;20564;-78
2023/12/30 00:22:48;;;;;;;4.00;1.90;;;;;;;;;;5037205;28;20445;-78
2023/12/30 00:25:16;;;;;;;5.23;2.33;;;;;;;;;;5036372;28;20572;-78
2023/12/30 00:27:43;;;;;;;2.10;1.50;;;;;;;;;;5037052;28;20572;-78
2023/12/30 00:30:12;;;;;;;7.50;1.80;;;;;;;;;;5036656;28;20559;-78
2023/12/30 00:32:40;;;;;;;2.53;1.20;;;;;;;;;;5037030;28;20442;-78
2023/12/30 00:35:07;;;;;;;4.67;1.60;;;;;;;;;;5036350;28;20468;-78
2023/12/30 00:37:34;;;;;;;3.70;1.77;;;;;;;;;;5036584;28;20528;-78
2023/12/30 00:40:00;;;;;;;3.80;1.23;;;;;;;;;;5036281;28;20546;-78
2023/12/30 00:42:27;;;;;;;3.63;1.43;;;;;;;;;;5036857;28;20432;-78
2023/12/30 00:44:55;;;;;;;3.97;1.53;;;;;;;;;;5035965;28;20480;-78
2023/12/30 00:47:21;;;;;;;3.97;1.60;;;;;;;;;;5036742;28;20527;-78
2023/12/30 00:49:47;;;;;;;4.83;1.70;;;;;;;;;;5036423;28;20551;-78
2023/12/30 00:52:14;;;;;;;4.60;1.73;;;;;;;;;;5036596;28;20437;-78
2023/12/30 00:54:40;;;;;;;6.93;2.13;;;;;;;;;;5035874;28;20551;-78
2023/12/30 00:57:07;;;;;;;4.77;1.57;;;;;;;;;;5036522;28;20535;-78
2023/12/30 00:59:33;;;;;;;5.67;2.20;;;;;;;;;;5035573;28;20556;-80
2023/12/30 01:02:01;;;;;;;1.73;1.50;;;;;;;;;;5036472;28;20550;-79
2023/12/30 01:04:27;;;;;;;4.13;1.83;;;;;;;;;;5035645;28;20569;-78
2023/12/30 01:06:54;;;;;;;4.37;1.67;;;;;;;;;;5035884;28;20523;-78
2023/12/30 01:09:20;;;;;;;6.47;2.67;;;;;;;;;;5035564;28;20480;-78
2023/12/30 01:11:47;;;;;;;6.67;2.03;;;;;;;;;;5036414;28;20520;-78
2023/12/30 01:14:13;;;;;;;7.43;2.77;;;;;;;;;;5034979;28;20897;-78
2023/12/30 01:16:39;;;;;;;5.23;1.30;;;;;;;;;;5035714;28;20464;-78
2023/12/30 01:19:07;;;;;;;3.30;1.73;;;;;;;;;;5035431;28;21006;-80
2023/12/30 01:21:34;;;;;;;5.40;1.77;;;;;;;;;;5035628;28;20961;-79
2023/12/30 01:24:00;;;;;;;6.20;1.60;;;;;;;;;;5035435;28;20503;-80
2023/12/30 01:26:27;;;;;;;6.67;1.60;;;;;;;;;;5035630;28;21010;-78
2023/12/30 01:28:53;;;;;;;2.87;1.13;;;;;;;;;;5035381;28;20876;-78
2023/12/30 01:31:19;;;;;;;8.13;1.80;;;;;;;;;;5035958;28;20531;-80
2023/12/30 01:33:46;;;;;;;2.97;1.57;;;;;;;;;;5035336;28;20495;-81
2023/12/30 01:36:14;;;;;;;3.00;1.73;;;;;;;;;;5035720;28;20433;-78
2023/12/30 01:38:41;;;;;;;3.07;1.33;;;;;;;;;;5035289;28;20476;-81
2023/12/30 01:41:07;;;;;;;4.33;1.80;;;;;;;;;;5035299;28;20969;-79
2023/12/30 01:43:34;;;;;;;8.40;2.40;;;;;;;;;;5035240;28;20540;-79
2023/12/30 01:46:01;;;;;;;2.33;1.57;;;;;;;;;;5034790;28;20483;-79
2023/12/30 01:48:28;;;;;;;12.80;2.80;;;;;;;;;;5035545;28;20492;-79
2023/12/30 01:50:57;;;;;;;3.43;2.00;;;;;;;;;;5035021;28;20555;-79
2023/12/30 01:53:25;;;;;;;6.33;2.67;;;;;;;;;;5035428;28;20444;-79
2023/12/30 01:55:52;;;;;;;5.80;1.80;;;;;;;;;;5035137;28;21022;-79
2023/12/30 01:58:19;;;;;;;12.40;1.57;;;;;;;;;;5034922;28;20531;-78
2023/12/30 02:00:47;;;;;;;12.70;2.37;;;;;;;;;;5034895;28;20572;-79
2023/12/30 02:03:14;;;;;;;8.23;2.43;;;;;;;;;;5035251;28;20531;-79
2023/12/30 02:05:40;;;;;;;4.63;1.73;;;;;;;;;;5034441;28;20563;-79
2023/12/30 02:08:08;;;;;;;5.37;1.50;;;;;;;;;;5035260;28;20531;-79
2023/12/30 02:10:36;;;;;;;13.17;1.87;;;;;;;;;;5034872;28;20881;-79
2023/12/30 02:13:02;;;;;;;5.67;1.80;;;;;;;;;;5035082;28;20467;-79
2023/12/30 02:15:29;;;;;;;7.37;1.87;;;;;;;;;;5034744;28;20895;-79
2023/12/30 02:17:56;;;;;;;6.73;2.90;;;;;;;;;;5034664;28;20861;-79
2023/12/30 02:20:22;;;;;;;8.53;2.10;;;;;;;;;;5034642;28;20557;-79
2023/12/30 02:22:50;;;;;;;7.27;1.73;;;;;;;;;;5034899;28;20901;-79
2023/12/30 02:25:17;;;;;;;3.43;2.13;;;;;;;;;;5034007;28;20565;-78
2023/12/30 02:27:43;;;;;;;5.33;1.73;;;;;;;;;;5034398;28;20520;-79
2023/12/30 02:30:10;;;;;;;3.20;2.67;;;;;;;;;;5034080;28;20919;-79
2023/12/30 02:32:37;;;;;;;6.73;2.10;;;;;;;;;;5034649;28;20524;-79
2023/12/30 02:35:03;;;;;;;6.37;2.10;;;;;;;;;;5034024;28;20881;-79
2023/12/30 02:37:30;;;;;;;3.60;1.80;;;;;;;;;;5034382;28;20531;-79
2023/12/30 02:39:57;;;;;;;4.03;1.40;;;;;;;;;;5034194;28;20552;-79
2023/12/30 02:42:24;;;;;;;5.13;1.70;;;;;;;;;;5034547;28;20867;-79
2023/12/30 02:44:50;;;;;;;17.57;3.60;;;;;;;;;;5033862;28;20560;-79
2023/12/30 02:47:17;;;;;;;6.73;1.90;;;;;;;;;;5034426;28;20476;-79
2023/12/30 02:49:44;;;;;;;16.93;2.27;;;;;;;;;;5033844;28;20556;-79
2023/12/30 02:52:11;;;;;;;8.13;2.40;;;;;;;;;;5034008;28;20536;-79
2023/12/30 02:54:37;;;;;;;5.67;1.77;;;;;;;;;;5033484;28;20555;-79
2023/12/30 02:57:06;;;;;;;9.23;2.50;;;;;;;;;;5034301;28;20524;-79
2023/12/30 02:59:32;;;;;;;4.77;2.63;;;;;;;;;;5033560;28;20485;-79
2023/12/30 03:01:59;;;;;;;12.67;2.23;;;;;;;;;;5033917;28;21018;-79
2023/12/30 03:04:25;;;;;;;6.83;2.17;;;;;;;;;;5033666;28;20559;-79
2023/12/30 03:06:52;;;;;;;9.20;2.40;;;;;;;;;;5033994;28;20591;-79
2023/12/30 03:09:18;;;;;;;6.33;2.87;;;;;;;;;;5033426;28;20552;-79
2023/12/30 03:11:44;;;;;;;6.70;2.30;;;;;;;;;;5034038;28;20527;-79
2023/12/30 03:14:12;;;;;;;5.17;2.00;;;;;;;;;;5033388;28;20910;-79
2023/12/30 03:16:39;;;;;;;8.70;2.70;;;;;;;;;;5033572;28;20892;-79
2023/12/30 03:19:05;;;;;;;5.30;2.20;;;;;;;;;;5033149;28;20545;-79
2023/12/30 03:21:31;;;;;;;7.00;1.53;;;;;;;;;;5033940;28;20544;-79
2023/12/30 03:23:58;;;;;;;2.40;1.50;;;;;;;;;;5032985;28;20524;-79
2023/12/30 03:26:24;;;;;;;9.20;2.00;;;;;;;;;;5033391;28;21078;-79
2023/12/30 03:28:51;;;;;;;8.63;1.97;;;;;;;;;;5033184;28;20515;-79
2023/12/30 03:31:23;;;;;;;6.53;2.30;;;;;;;;;;5033707;28;20452;-79
2023/12/30 03:33:49;;;;;;;8.17;2.40;;;;;;;;;;5033035;28;20524;-80
2023/12/30 03:36:16;;;;;;;5.97;2.90;;;;;;;;;;5033604;28;20872;-79
2023/12/30 03:38:42;;;;;;;8.40;2.57;;;;;;;;;;5032670;28;20540;-80
2023/12/30 03:41:08;;;;;;;14.63;3.20;;;;;;;;;;5033518;28;20539;-79
2023/12/30 03:43:35;;;;;;;3.70;1.90;;;;;;;;;;5033488;28;20536;-79
2023/12/30 03:46:01;;;;;;;10.97;2.37;;;;;;;;;;5032612;28;20501;-79
2023/12/30 03:48:29;;;;;;;6.50;1.73;;;;;;;;;;5033384;28;20528;-79
2023/12/30 03:50:55;;;;;;;9.57;2.03;;;;;;;;;;5032635;28;20556;-79
2023/12/30 03:53:22;;;;;;;7.40;1.90;;;;;;;;;;5033356;28;20528;-79
2023/12/30 03:55:48;;;;;;;5.50;1.90;;;;;;;;;;5032620;28;20528;-79
2023/12/30 03:58:16;;;;;;;9.00;2.37;;;;;;;;;;5033120;28;20539;-79
2023/12/30 04:00:43;;;;;;;6.33;2.60;;;;;;;;;;5032572;28;20559;-79
2023/12/30 04:03:09;;;;;;;8.67;1.93;;;;;;;;;;5032914;28;21014;-79
2023/12/30 04:05:37;;;;;;;9.93;2.47;;;;;;;;;;5032927;28;20522;-79
2023/12/30 04:08:04;;;;;;;6.60;2.20;;;;;;;;;;5032927;28;20520;-79
2023/12/30 04:10:30;;;;;;;7.57;2.27;;;;;;;;;;5032999;28;20560;-79
2023/12/30 04:12:57;;;;;;;11.10;2.23;;;;;;;;;;5032948;28;20527;-79
2023/12/30 04:15:23;;;;;;;7.27;2.80;;;;;;;;;;5032912;28;20560;-79
2023/12/30 04:17:49;;;;;;;9.80;2.70;;;;;;;;;;5032896;28;21018;-79
2023/12/30 04:20:16;;;;;;;10.07;2.77;;;;;;;;;;5032826;28;20560;-79
2023/12/30 04:22:44;;;;;;;8.30;2.40;;;;;;;;;;5033052;28;20464;-79
2023/12/30 04:25:10;;;;;;;13.30;2.37;;;;;;;;;;5032336;28;20555;-79
2023/12/30 04:27:37;;;;;;;15.67;2.40;;;;;;;;;;5033148;28;20517;-79
2023/12/30 04:30:03;;;;;;;9.20;2.40;;;;;;;;;;5032177;28;20564;-79
2023/12/30 04:32:30;;;;;;;7.17;2.20;;;;;;;;;;5032737;28;20930;-79
2023/12/30 04:34:56;;;;;;;8.00;2.43;;;;;;;;;;5032397;28;20892;-79
2023/12/30 04:37:23;;;;;;;7.23;2.10;;;;;;;;;;5032647;28;20529;-79
2023/12/30 04:39:51;;;;;;;5.10;1.90;;;;;;;;;;5032278;28;20556;-79
2023/12/30 04:42:17;;;;;;;8.13;2.50;;;;;;;;;;5033060;28;20528;-79
2023/12/30 04:44:43;;;;;;;4.37;1.93;;;;;;;;;;5032207;28;20539;-79
2023/12/30 04:47:10;;;;;;;5.40;1.77;;;;;;;;;;5033332;28;20571;-79
2023/12/30 04:49:36;;;;;;;6.10;2.80;;;;;;;;;;5032393;28;20559;-79
2023/12/30 04:52:02;;;;;;;8.80;2.20;;;;;;;;;;5036305;28;20540;-79
2023/12/30 04:54:30;;;;;;;9.27;2.43;;;;;;;;;;5035998;28;20552;-79
2023/12/30 04:56:58;;;;;;;4.40;2.40;;;;;;;;;;5036179;28;20494;-79
2023/12/30 04:59:25;;;;;;;10.70;3.10;;;;;;;;;;5035858;28;20555;-79
2023/12/30 05:01:51;;;;;;;5.20;3.17;;;;;;;;;;5036479;28;20453;-79
2023/12/30 05:04:18;;;;;;;5.30;2.47;;;;;;;;;;5035889;28;20560;-79
2023/12/30 05:06:44;;;;;;;3.20;1.73;;;;;;;;;;5036258;28;20567;-79
2023/12/30 05:09:14;;;;;;;6.90;2.40;;;;;;;;;;5036167;28;20535;-79
2023/12/30 05:11:43;;;;;;;7.57;2.70;;;;;;;;;;5035919;28;20812;-79
2023/12/30 05:14:11;;;;;;;5.90;1.80;;;;;;;;;;5035322;28;21034;-79
2023/12/30 05:16:41;;;;;;;5.70;1.90;;;;;;;;;;5035942;28;21018;-79
2023/12/30 05:19:08;;;;;;;4.67;1.80;;;;;;;;;;5035853;28;20536;-79
2023/12/30 05:21:34;;;;;;;6.97;2.50;;;;;;;;;;5035790;28;20536;-79
2023/12/30 05:24:01;;;;;;;6.53;2.20;;;;;;;;;;5035747;28;20543;-80
2023/12/30 05:26:28;;;;;;;11.10;2.13;;;;;;;;;;5035963;28;20480;-79
2023/12/30 05:28:55;;;;;;;9.13;2.93;;;;;;;;;;5035436;28;20540;-79
2023/12/30 05:31:23;;;;;;;5.63;1.50;;;;;;;;;;5035876;28;20935;-79
2023/12/30 05:33:49;;;;;;;6.63;1.97;;;;;;;;;;5035323;28;20872;-79
2023/12/30 05:36:16;;;;;;;6.50;1.83;;;;;;;;;;5035477;28;20528;-79
2023/12/30 05:38:42;;;;;;;12.67;1.80;;;;;;;;;;5035086;28;20536;-79
2023/12/30 05:41:09;;;;;;;13.90;2.43;;;;;;;;;;5035703;28;20536;-79
2023/12/30 05:43:35;;;;;;;3.97;1.90;;;;;;;;;;5035468;28;20528;-79
2023/12/30 05:46:02;;;;;;;10.53;2.63;;;;;;;;;;5034713;28;20568;-79
2023/12/30 05:48:30;;;;;;;8.03;2.10;;;;;;;;;;5035566;28;20436;-79
2023/12/30 05:50:56;;;;;;;14.27;3.00;;;;;;;;;;5035273;28;20552;-79
2023/12/30 05:53:23;;;;;;;11.60;2.40;;;;;;;;;;5035293;28;20892;-79
2023/12/30 05:55:51;;;;;;;8.57;1.67;;;;;;;;;;5035173;28;20552;-79
2023/12/30 05:58:17;;;;;;;6.77;2.17;;;;;;;;;;5035052;28;20969;-79
2023/12/30 06:00:44;;;;;;;6.60;1.80;;;;;;;;;;5034628;28;20488;-79
2023/12/30 06:03:11;;;;;;;6.77;2.17;;;;;;;;;;5035320;28;20531;-79
2023/12/30 06:05:40;;;;;;;5.20;1.97;;;;;;;;;;5034362;28;21002;-80
2023/12/30 06:08:07;;;;;;;6.90;2.20;;;;;;;;;;5035119;28;21022;-79
2023/12/30 06:10:33;;;;;;;13.50;2.20;;;;;;;;;;5034478;28;21069;-79
2023/12/30 06:12:59;;;;;;;9.77;2.73;;;;;;;;;;5035080;28;20527;-79
2023/12/30 06:15:26;;;;;;;5.47;1.97;;;;;;;;;;5034454;28;20547;-79
2023/12/30 06:17:52;;;;;;;8.77;2.10;;;;;;;;;;5034701;28;20528;-79
2023/12/30 06:20:19;;;;;;;7.43;2.50;;;;;;;;;;5034774;28;21022;-79
2023/12/30 06:22:47;;;;;;;12.50;2.97;;;;;;;;;;5034959;28;20480;-79
2023/12/30 06:25:13;;;;;;;4.90;1.60;;;;;;;;;;5034483;28;20547;-79
2023/12/30 06:27:39;;;;;;;7.80;2.00;;;;;;;;;;5034479;28;20519;-79
2023/12/30 06:30:07;;;;;;;13.30;3.53;;;;;;;;;;5034521;28;20556;-79
2023/12/30 06:32:33;;;;;;;7.53;1.97;;;;;;;;;;5034413;28;20938;-79
2023/12/30 06:35:00;;;;;;;7.70;1.80;;;;;;;;;;5033947;28;20568;-79
2023/12/30 06:37:26;;;;;;;10.67;3.33;;;;;;;;;;5034338;28;21005;-79
2023/12/30 06:39:54;;;;;;;2.87;1.77;;;;;;;;;;5033926;28;20886;-79
2023/12/30 06:42:21;;;;;;;6.53;2.83;;;;;;;;;;5034580;28;20847;-79
2023/12/30 06:44:47;;;;;;;6.60;2.07;;;;;;;;;;5033801;28;20556;-79
2023/12/30 06:47:13;;;;;;;11.63;2.70;;;;;;;;;;5034038;28;20582;-79
2023/12/30 06:49:40;;;;;;;9.00;2.43;;;;;;;;;;5033817;28;20559;-79
2023/12/30 06:52:06;;;;;;;6.93;2.97;;;;;;;;;;5034136;28;20991;-79
2023/12/30 06:54:33;;;;;;;11.37;3.07;;;;;;;;;;5033644;28;21054;-79
2023/12/30 06:57:00;;;;;;;12.37;3.00;;;;;;;;;;5033925;28;20531;-79
2023/12/30 06:59:27;;;;;;;12.83;3.30;;;;;;;;;;5033335;28;20556;-80
2023/12/30 07:01:53;;;;;;;11.80;2.63;;;;;;;;;;5034115;28;20448;-80
2023/12/30 07:04:21;;;;;;;13.67;3.37;;;;;;;;;;5033706;28;20563;-79
2023/12/30 07:06:47;;;;;;;8.40;3.30;;;;;;;;;;5034082;28;20488;-79
2023/12/30 07:09:14;;;;;;;8.70;3.90;;;;;;;;;;5033236;28;20902;-79
2023/12/30 07:11:40;;;;;;;16.20;2.90;;;;;;;;;;5033997;28;20531;-79
2023/12/30 07:14:08;;;;;;;14.03;2.90;;;;;;;;;;5032792;28;20589;-79
2023/12/30 07:16:34;;;;;;;11.27;2.30;;;;;;;;;;5033558;28;21010;-79
2023/12/30 07:19:01;;;;;;;15.10;3.00;;;;;;;;;;5033326;28;20518;-79
2023/12/30 07:21:27;;;;;;;6.23;1.90;;;;;;;;;;5033509;28;20535;-79
2023/12/30 07:23:53;;;;;;;14.33;3.20;;;;;;;;;;5033027;28;20528;-79
2023/12/30 07:26:20;;;;;;;11.83;3.83;;;;;;;;;;5033639;28;20575;-79
2023/12/30 07:28:47;;;;;;;16.87;2.67;;;;;;;;;;5033185;28;20528;-81
2023/12/30 07:31:15;;;;;;;5.23;2.20;;;;;;;;;;5033351;28;20986;-79
2023/12/30 07:33:41;;;;;;;6.83;2.20;;;;;;;;;;5033466;28;20444;-81
2023/12/30 07:36:08;;;;;;;7.97;2.70;;;;;;;;;;5033545;28;20539;-79
2023/12/30 07:38:34;;;;;;;9.97;2.90;;;;;;;;;;5033604;28;20444;-79
2023/12/30 07:41:01;;;;;;;12.43;3.10;;;;;;;;;;5033414;28;20492;-79
2023/12/30 07:43:27;;;;;;;9.90;3.10;;;;;;;;;;5033502;28;20481;-79
2023/12/30 07:45:53;;;;;;;13.10;2.73;;;;;;;;;;5033071;28;20895;-79
2023/12/30 07:48:21;;;;;;;5.80;2.50;;;;;;;;;;5033331;28;20576;-79
2023/12/30 07:50:48;;;;;;;8.93;3.17;;;;;;;;;;5033298;28;20896;-79
2023/12/30 07:53:14;;;;;;;8.80;2.77;;;;;;;;;;5033390;28;20535;-79
2023/12/30 07:55:40;;;;;;;15.00;3.73;;;;;;;;;;5032628;28;20504;-79
2023/12/30 07:58:07;;;;;;;6.37;2.70;;;;;;;;;;5032880;28;20536;-79
2023/12/30 08:00:33;;;;;;;4.20;2.20;;;;;;;;;;5033289;28;20560;-79
2023/12/30 08:03:00;;;;;;;12.37;3.23;;;;;;;;;;5033286;28;20452;-79
2023/12/30 08:05:27;;;;;;;11.43;3.03;;;;;;;;;;5032544;28;20501;-79
2023/12/30 08:07:54;;;;;;;10.63;2.63;;;;;;;;;;5033150;28;20579;-79
2023/12/30 08:10:20;;;;;;;9.70;2.77;;;;;;;;;;5033117;28;20555;-79
2023/12/30 08:12:47;;;;;;;8.97;3.07;;;;;;;;;;5033188;28;20528;-79
2023/12/30 08:15:13;;;;;;;10.23;2.30;;;;;;;;;;5032929;28;21024;-79
2023/12/30 08:17:40;;;;;;;8.43;2.17;;;;;;;;;;5032841;28;20528;-79
2023/12/30 08:20:07;;;;;;;10.23;3.30;;;;;;;;;;5032698;28;20472;-79
2023/12/30 08:22:35;;;;;;;3.70;1.80;;;;;;;;;;5033044;28;20990;-79
2023/12/30 08:25:02;;;;;;;4.27;1.93;;;;;;;;;;5034894;28;20891;-79
2023/12/30 08:27:29;;;;;;;13.90;2.50;;;;;;;;;;5036843;28;20487;-79
2023/12/30 08:29:55;;;;;;;10.23;2.00;;;;;;;;;;5036227;28;20551;-79
2023/12/30 08:32:22;;;;;;;11.53;2.07;;;;;;;;;;5036893;28;20436;-79
2023/12/30 08:34:49;;;;;;;10.40;4.23;;;;;;;;;;5036639;28;20531;-79
2023/12/30 08:37:15;;;;;;;7.80;2.70;;;;;;;;;;5036846;28;20437;-79
2023/12/30 08:39:45;;;;;;;8.37;2.37;;;;;;;;;;5036487;28;20563;-79
2023/12/30 08:42:12;;;;;;;9.03;2.77;;;;;;;;;;5037250;28;20487;-79
2023/12/30 08:44:43;;;;;;;8.97;2.77;;;;;;;;;;5036133;28;20991;-79
2023/12/30 08:47:10;;;;;;;13.90;2.90;;;;;;;;;;5036429;28;20978;-79
2023/12/30 08:49:36;;;;;;;4.77;1.63;;;;;;;;;;5036176;28;21069;-79
2023/12/30 08:52:03;;;;;;;7.43;2.30;;;;;;;;;;5036356;28;20532;-79
2023/12/30 08:54:29;;;;;;;6.50;2.13;;;;;;;;;;5036127;28;20903;-79
2023/12/30 08:56:57;;;;;;;8.63;2.10;;;;;;;;;;5036144;28;20436;-79
2023/12/30 08:59:24;;;;;;;3.30;2.30;;;;;;;;;;5035794;28;20548;-79
2023/12/30 09:01:51;;;;;;;10.83;3.70;;;;;;;;;;5036433;28;20523;-79
2023/12/30 09:04:17;;;;;;;13.23;2.50;;;;;;;;;;5035859;28;20559;-79
2023/12/30 09:06:43;;;;;;;12.00;1.93;;;;;;;;;;5036287;28;20531;-79
2023/12/30 09:09:11;;;;;;;6.50;1.90;;;;;;;;;;5035914;28;20544;-79
2023/12/30 09:11:40;;;;;;;11.17;2.20;;;;;;;;;;5036284;28;20440;-79
2023/12/30 09:14:08;;;;;;;6.10;1.80;;;;;;;;;;5035594;28;20476;-79
2023/12/30 09:16:35;;;;;;;7.30;2.17;;;;;;;;;;5036163;28;20447;-79
2023/12/30 09:19:01;;;;;;;6.23;1.57;;;;;;;;;;5035689;28;20496;-79
2023/12/30 09:21:29;;;;;;;9.80;2.53;;;;;;;;;;5036080;28;20445;-79
2023/12/30 09:23:56;;;;;;;13.50;2.30;;;;;;;;;;5035536;28;20491;-79
2023/12/30 09:26:22;;;;;;;7.03;2.30;;;;;;;;;;5035746;28;20527;-79
2023/12/30 09:28:48;;;;;;;9.63;2.90;;;;;;;;;;5035484;28;20579;-80
2023/12/30 09:31:17;;;;;;;17.00;3.10;;;;;;;;;;5035656;28;21002;-80
2023/12/30 09:33:43;;;;;;;8.77;2.20;;;;;;;;;;5035432;28;20498;-79
2023/12/30 09:36:10;;;;;;;11.97;2.47;;;;;;;;;;5034679;28;20904;-79
2023/12/30 09:38:36;;;;;;;11.30;3.60;;;;;;;;;;5035743;28;20531;-79
2023/12/30 09:41:02;;;;;;;12.07;2.60;;;;;;;;;;5035443;28;20551;-79
2023/12/30 09:43:29;;;;;;;9.47;3.33;;;;;;;;;;5035249;28;20528;-79
2023/12/30 09:45:56;;;;;;;7.13;2.37;;;;;;;;;;5034810;28;21075;-79
2023/12/30 09:48:25;;;;;;;10.43;3.13;;;;;;;;;;5035311;28;20579;-79
2023/12/30 09:50:52;;;;;;;9.43;2.90;;;;;;;;;;5034885;28;20467;-79
2023/12/30 09:53:21;;;;;;;17.57;2.80;;;;;;;;;;5035150;28;21045;-79
2023/12/30 09:55:48;;;;;;;13.63;3.30;;;;;;;;;;5034925;28;20479;-80
2023/12/30 09:58:15;;;;;;;5.70;2.73;;;;;;;;;;5035148;28;20502;-80
2023/12/30 10:00:42;;;;;;;5.93;2.40;;;;;;;;;;5035194;28;20503;-80
2023/12/30 10:03:08;;;;;;;11.40;2.70;;;;;;;;;;5035254;28;20451;-80
2023/12/30 10:05:36;;;;;;;9.90;2.40;;;;;;;;;;5034462;28;20552;-78
2023/12/30 10:08:03;;;;;;;7.77;2.00;;;;;;;;;;5035188;28;20576;-78
2023/12/30 10:10:40;;;;;;;10.57;4.00;;;;;;;;;;5035522;28;20473;-78
2023/12/30 10:13:06;;;;;;;15.57;3.27;;;;;;;;;;5035112;28;20504;-78
2023/12/30 10:15:33;;;;;;;7.00;1.80;;;;;;;;;;5034544;28;20552;-78
2023/12/30 10:17:59;;;;;;;6.40;2.13;;;;;;;;;;5035525;28;20536;-78
2023/12/30 10:20:26;;;;;;;11.63;3.33;;;;;;;;;;5034811;28;21073;-78
2023/12/30 10:22:54;;;;;;;17.47;2.40;;;;;;;;;;5034859;28;20520;-78
2023/12/30 10:25:20;;;;;;;12.17;2.50;;;;;;;;;;5034534;28;20560;-78
2023/12/30 10:27:48;;;;;;;6.43;1.90;;;;;;;;;;5034760;28;20484;-78
2023/12/30 10:30:16;;;;;;;10.17;2.10;;;;;;;;;;5034263;28;20488;-78
2023/12/30 10:32:43;;;;;;;4.87;1.77;;;;;;;;;;5034512;28;20547;-78
2023/12/30 10:35:09;;;;;;;9.43;2.43;;;;;;;;;;5034069;28;20556;-80
2023/12/30 10:37:36;;;;;;;10.43;3.10;;;;;;;;;;5034926;28;20439;-80
2023/12/30 10:40:06;;;;;;;6.23;2.27;;;;;;;;;;5034405;28;20552;-80
2023/12/30 10:42:32;;;;;;;14.67;2.80;;;;;;;;;;5034256;28;20986;-80
2023/12/30 10:44:59;;;;;;;5.73;2.30;;;;;;;;;;5033926;28;20519;-79
2023/12/30 10:47:27;;;;;;;6.03;1.77;;;;;;;;;;5033516;28;20925;-79
2023/12/30 10:49:56;;;;;;;9.87;2.77;;;;;;;;;;5033808;28;20559;-79
2023/12/30 10:52:24;;;;;;;7.07;1.93;;;;;;;;;;5034386;28;20441;-79
2023/12/30 10:54:55;;;;;;;8.87;3.30;;;;;;;;;;5033594;28;20885;-79
2023/12/30 10:57:28;;;;;;;4.60;2.00;;;;;;;;;;5034265;28;20429;-79
2023/12/30 10:59:56;;;;;;;6.20;3.00;;;;;;;;;;5033879;28;20555;-79
2023/12/30 11:02:23;;;;;;;6.60;2.50;;;;;;;;;;5034218;28;20528;-79
2023/12/30 11:04:50;;;;;;;8.93;2.50;;;;;;;;;;5033270;28;20552;-79
2023/12/30 11:07:18;;;;;;;5.40;2.03;;;;;;;;;;5034000;28;20531;-79
2023/12/30 11:09:44;;;;;;;9.83;2.90;;;;;;;;;;5033513;28;20891;-79
2023/12/30 11:12:11;;;;;;;8.00;1.90;;;;;;;;;;5033734;28;20820;-79
2023/12/30 11:14:39;;;;;;;4.73;2.50;;;;;;;;;;5033416;28;20555;-79
2023/12/30 11:17:06;;;;;;;10.37;3.00;;;;;;;;;;5033588;28;20990;-79
2023/12/30 11:19:35;;;;;;;10.83;3.23;;;;;;;;;;5033297;28;20468;-79
2023/12/30 11:22:03;;;;;;;14.23;2.53;;;;;;;;;;5029434;28;20484;-79
2023/12/30 11:24:29;;;;;;;7.33;2.13;;;;;;;;;;5033003;28;20552;-79
2023/12/30 11:26:56;;;;;;;10.17;3.10;;;;;;;;;;5033799;28;20531;-79
2023/12/30 11:29:25;;;;;;;7.20;2.30;;;;;;;;;;5033319;28;20465;-79
2023/12/30 11:31:53;;;;;;;10.40;4.20;;;;;;;;;;5033386;28;20531;-79
2023/12/30 11:34:20;;;;;;;13.90;2.73;;;;;;;;;;5033219;28;20490;-79
2023/12/30 11:36:47;;;;;;;10.77;3.40;;;;;;;;;;5033634;28;20437;-79
2023/12/30 11:39:15;;;;;;;11.53;4.00;;;;;;;;;;5032903;28;20818;-79
2023/12/30 11:41:41;;;;;;;7.27;2.23;;;;;;;;;;5033541;28;20441;-79
2023/12/30 11:44:08;;;;;;;7.90;2.43;;;;;;;;;;5033005;28;20560;-80
2023/12/30 11:46:34;;;;;;;9.60;3.27;;;;;;;;;;5033055;28;20532;-79
2023/12/30 11:49:02;;;;;;;11.20;2.47;;;;;;;;;;5032645;28;20560;-79
2023/12/30 11:51:29;;;;;;;8.83;2.47;;;;;;;;;;5033669;28;20523;-79
2023/12/30 11:53:56;;;;;;;10.13;3.00;;;;;;;;;;5032609;28;20536;-79
2023/12/30 11:56:23;;;;;;;5.70;2.47;;;;;;;;;;5033050;28;20528;-79
2023/12/30 11:58:50;;;;;;;6.53;2.40;;;;;;;;;;5032108;28;20532;-79
2023/12/30 12:01:18;;;;;;;17.30;3.70;;;;;;;;;;5033319;28;20527;-79
2023/12/30 12:03:44;;;;;;;6.80;2.90;;;;;;;;;;5032886;28;20437;-79
2023/12/30 12:06:12;;;;;;;12.73;2.83;;;;;;;;;;5033472;28;20491;-79
2023/12/30 12:08:39;;;;;;;10.03;3.43;;;;;;;;;;5032786;28;21076;-80
2023/12/30 12:11:06;;;;;;;4.30;2.00;;;;;;;;;;5032945;28;20460;-79
2023/12/30 12:13:32;;;;;;;10.33;2.43;;;;;;;;;;5033285;28;20536;-80
2023/12/30 12:15:59;;;;;;;6.17;2.37;;;;;;;;;;5032339;28;20552;-80
2023/12/30 12:18:25;;;;;;;10.57;3.73;;;;;;;;;;5033196;28;20520;-79
2023/12/30 12:20:52;;;;;;;12.43;3.33;;;;;;;;;;5032932;28;20551;-79
2023/12/30 12:23:23;;;;;;;10.20;3.30;;;;;;;;;;5032990;28;20452;-80
2023/12/30 12:25:49;;;;;;;8.40;3.60;;;;;;;;;;5032773;28;20472;-79
2023/12/30 12:28:17;;;;;;;9.80;3.23;;;;;;;;;;5033029;28;20579;-79
2023/12/30 12:30:44;;;;;;;9.13;3.47;;;;;;;;;;5032772;28;20556;-79
2023/12/30 12:33:12;;;;;;;6.23;3.03;;;;;;;;;;5032735;28;20889;-79
2023/12/30 12:35:38;;;;;;;15.93;4.10;;;;;;;;;;5032271;28;20551;-80
2023/12/30 12:38:05;;;;;;;8.17;3.27;;;;;;;;;;5032923;28;20531;-79
2023/12/30 12:40:33;;;;;;;7.83;2.97;;;;;;;;;;5032227;28;20556;-79
2023/12/30 12:42:59;;;;;;;6.60;3.30;;;;;;;;;;5032660;28;21030;-79
2023/12/30 12:45:26;;;;;;;10.57;4.17;;;;;;;;;;5032048;28;20906;-79
2023/12/30 12:47:52;;;;;;;5.40;3.07;;;;;;;;;;5032571;28;21006;-80
2023/12/30 12:50:19;;;;;;;16.77;4.63;;;;;;;;;;5032517;28;20559;-80
2023/12/30 12:52:45;;;;;;;11.77;3.33;;;;;;;;;;5033359;28;20528;-80
2023/12/30 12:55:12;;;;;;;6.27;3.43;;;;;;;;;;5032119;28;20548;-79
2023/12/30 12:57:40;;;;;;;11.93;3.40;;;;;;;;;;5032476;28;20931;-80
2023/12/30 13:00:08;;;;;;;11.43;3.57;;;;;;;;;;5032199;28;20563;-80
2023/12/30 13:02:35;;;;;;;11.43;2.90;;;;;;;;;;5032754;28;20451;-79
2023/12/30 13:05:02;;;;;;;6.27;2.80;;;;;;;;;;5032047;28;20559;-80
2023/12/30 13:07:28;;;;;;;22.30;12.70;;;;;;;;;;5032737;28;20474;-80
2023/12/30 13:09:59;;;;;;;22.60;6.47;;;;;;;;;;5034615;28;20580;-79
2023/12/30 13:12:25;;;;;;;33.30;19.27;;;;;;;;;;5036805;28;20895;-81
2023/12/30 13:14:56;;;;;;;28.93;11.00;;;;;;;;;;5035825;28;20507;-78
2023/12/30 13:17:22;;;;;;;22.33;9.07;;;;;;;;;;5036080;28;21031;-80
2023/12/30 13:19:49;;;;;;;24.63;14.03;;;;;;;;;;5035503;28;20571;-79
2023/12/30 13:22:15;;;;;;;10.23;5.00;;;;;;;;;;5035837;28;20952;-80
2023/12/30 13:24:44;;;;;;;6.13;3.13;;;;;;;;;;5035475;28;20580;-80
2023/12/30 13:27:11;;;;;;;11.97;4.27;;;;;;;;;;5036072;28;20441;-78
2023/12/30 13:29:37;;;;;;;9.83;3.13;;;;;;;;;;5035396;28;20576;-80
2023/12/30 13:32:05;;;;;;;8.90;4.03;;;;;;;;;;5035919;28;20441;-78
2023/12/30 13:34:34;;;;;;;40.17;21.40;;;;;;;;;;5035265;28;20539;-80
2023/12/30 13:37:05;;;;;;;47.03;22.90;;;;;;;;;;5035815;28;20445;-78
2023/12/30 13:39:33;;;;;;;21.33;11.60;;;;;;;;;;5035145;28;20878;-79
2023/12/30 13:42:03;;;;;;;19.63;9.30;;;;;;;;;;5035749;28;20437;-78
2023/12/30 13:44:35;;;;;;;23.80;5.87;;;;;;;;;;5035348;28;20473;-78
2023/12/30 13:47:31;;;;;;;18.63;8.70;;;;;;;;;;5035407;28;20429;-78
2023/12/30 13:50:07;;;;;;;17.23;5.90;;;;;;;;;;5034930;28;20487;-78
2023/12/30 13:52:36;;;;;;;9.73;3.50;;;;;;;;;;5035590;28;20433;-78
2023/12/30 13:55:04;;;;;;;15.50;7.00;;;;;;;;;;5034752;28;20893;-78
2023/12/30 13:57:32;;;;;;;13.53;4.97;;;;;;;;;;5035483;28;20547;-81
2023/12/30 13:59:59;;;;;;;13.90;3.10;;;;;;;;;;5034581;28;20518;-81
2023/12/30 14:02:26;;;;;;;10.43;4.17;;;;;;;;;;5035346;28;20535;-78
2023/12/30 14:04:57;;;;;;;9.57;4.37;;;;;;;;;;5034500;28;21056;-78
2023/12/30 14:07:27;;;;;;;11.27;5.77;;;;;;;;;;5035309;28;20425;-78
2023/12/30 14:09:58;;;;;;;21.90;6.60;;;;;;;;;;5034893;28;20502;-81
2023/12/30 14:12:25;;;;;;;11.17;5.97;;;;;;;;;;5035554;28;20481;-78
2023/12/30 14:14:54;;;;;;;15.20;6.63;;;;;;;;;;5034465;28;20487;-78
2023/12/30 14:17:22;;;;;;;13.40;7.50;;;;;;;;;;5035027;28;20436;-80
2023/12/30 14:19:49;;;;;;;28.67;16.17;;;;;;;;;;5034351;28;20480;-80
2023/12/30 14:22:18;;;;;;;18.93;7.40;;;;;;;;;;5034753;28;20441;-80
2023/12/30 14:24:44;;;;;;;11.87;5.00;;;;;;;;;;5034179;28;20483;-80
2023/12/30 14:27:12;;;;;;;12.50;5.30;;;;;;;;;;5034869;28;20490;-80
2023/12/30 14:29:38;;;;;;;8.23;3.63;;;;;;;;;;5033978;28;20473;-77
2023/12/30 14:32:06;;;;;;;10.70;3.87;;;;;;;;;;5034906;28;20525;-80
2023/12/30 14:34:33;;;;;;;13.63;5.47;;;;;;;;;;5034284;28;20475;-80
2023/12/30 14:36:59;;;;;;;13.87;5.80;;;;;;;;;;5034254;28;20978;-80